createdAt,value
2022-12-24T00:01:05.111Z,99809.44
2022-12-24T00:03:31.825Z,99811.78
2022-12-24T00:05:58.307Z,99809.69
2022-12-24T00:08:24.842Z,99812.16
2022-12-24T00:10:52.384Z,99805.22
2022-12-24T00:13:19.326Z,99810.25
2022-12-24T00:15:45.763Z,99812.16
2022-12-24T00:18:12.183Z,99801.72
2022-12-24T00:20:38.585Z,99806.69
2022-12-24T00:23:04.984Z,99798.34
2022-12-24T00:25:31.334Z,99797.56
2022-12-24T00:27:57.716Z,99797.19
2022-12-24T00:30:24.032Z,99801.16
2022-12-24T00:32:50.393Z,99801.75
2022-12-24T00:35:16.714Z,99809.53
2022-12-24T00:37:43.101Z,99810.28
2022-12-24T00:40:09.690Z,99812.56
2022-12-24T00:42:36.005Z,99809.78
2022-12-24T00:45:02.427Z,99812.66
2022-12-24T00:47:28.761Z,99816.72
2022-12-24T00:49:55.388Z,99815.97
2022-12-24T00:52:21.780Z,99827.31
2022-12-24T00:54:48.112Z,99821.44
2022-12-24T00:57:14.463Z,99821.28
2022-12-24T00:59:40.807Z,99832.84
2022-12-24T01:02:07.502Z,99827.69
2022-12-24T01:04:52.700Z,99833.97
2022-12-24T01:07:19.263Z,99835.13
2022-12-24T01:09:45.743Z,99838.81
2022-12-24T01:12:12.104Z,99847.03
2022-12-24T01:14:38.516Z,99843.16
2022-12-24T01:17:05.280Z,99847.41
2022-12-24T01:19:33.855Z,99845.31
2022-12-24T01:22:00.295Z,99844.28
2022-12-24T01:24:26.700Z,99844.75
2022-12-24T01:26:53.006Z,99858.22
2022-12-24T01:29:19.680Z,99851.97
2022-12-24T01:31:46.067Z,99856.22
2022-12-24T01:34:12.570Z,99861.81
2022-12-24T01:36:38.954Z,99859.63
2022-12-24T01:39:05.317Z,99859.16
2022-12-24T01:41:50.934Z,99861.22
2022-12-24T01:44:18.579Z,99860.84
2022-12-24T01:46:45.379Z,99860.75
2022-12-24T01:49:13.722Z,99857.44
2022-12-24T01:51:43.565Z,99856.72
2022-12-24T01:54:11.579Z,99870.44
2022-12-24T01:56:42.820Z,99881.50
2022-12-24T01:59:11.725Z,99881.88
2022-12-24T02:01:38.401Z,99879.53
2022-12-24T02:04:09.488Z,99886.78
2022-12-24T02:06:35.819Z,99891.44
2022-12-24T02:09:02.225Z,99894.50
2022-12-24T02:11:29.928Z,99905.47
2022-12-24T02:13:58.795Z,99900.19
2022-12-24T02:16:30.726Z,99904.72
2022-12-24T02:19:05.352Z,99905.75
2022-12-24T02:21:50.513Z,99909.75
2022-12-24T02:24:32.625Z,99907.09
2022-12-24T02:27:06.790Z,99914.44
2022-12-24T02:29:33.072Z,99912.47
2022-12-24T02:32:05.398Z,99921.28
2022-12-24T02:34:37.011Z,99922.63
2022-12-24T02:37:06.787Z,99930.22
2022-12-24T02:39:43.843Z,99936.28
2022-12-24T02:42:11.893Z,99934.69
2022-12-24T02:44:42.484Z,99940.84
2022-12-24T02:47:09.888Z,99940.34
2022-12-24T02:49:36.984Z,99939.66
2022-12-24T02:52:03.605Z,99946.50
2022-12-24T02:54:30.551Z,99948.06
2022-12-24T02:57:26.292Z,99949.16
2022-12-24T02:59:58.748Z,99953.41
2022-12-24T03:02:28.311Z,99961.47
2022-12-24T03:04:59.780Z,99960.34
2022-12-24T03:07:29.635Z,99965.25
2022-12-24T03:09:56.053Z,99965.97
2022-12-24T03:12:32.259Z,99963.00
2022-12-24T03:14:59.741Z,99961.47
2022-12-24T03:17:26.604Z,99964.31
2022-12-24T03:19:54.398Z,99970.84
2022-12-24T03:22:22.194Z,99971.13
2022-12-24T03:24:48.528Z,99973.00
2022-12-24T03:27:15.313Z,99976.72
2022-12-24T03:29:41.753Z,99971.94
2022-12-24T03:32:08.157Z,99985.25
2022-12-24T03:34:34.535Z,99989.28
2022-12-24T03:37:00.888Z,100000.59
2022-12-24T03:39:27.352Z,99998.25
2022-12-24T03:41:53.699Z,100002.78
2022-12-24T03:44:20.038Z,99998.13
2022-12-24T03:46:46.387Z,100001.66
2022-12-24T03:49:12.748Z,100002.00
2022-12-24T03:51:39.108Z,100005.88
2022-12-24T03:54:05.464Z,100005.38
2022-12-24T03:56:31.869Z,100018.53
2022-12-24T03:58:58.253Z,100016.00
2022-12-24T04:01:24.794Z,100017.91
2022-12-24T04:03:51.320Z,100022.03
2022-12-24T04:06:18.005Z,100026.00
2022-12-24T04:08:44.407Z,100025.72
2022-12-24T04:11:12.053Z,100026.59
2022-12-24T04:13:38.518Z,100020.06
2022-12-24T04:16:06.384Z,100008.13
2022-12-24T04:18:32.765Z,100023.91
2022-12-24T04:20:59.435Z,100040.66
2022-12-24T04:23:26.025Z,100038.59
2022-12-24T04:25:52.393Z,100035.25
2022-12-24T04:28:18.792Z,100031.84
2022-12-24T04:30:45.138Z,100039.75
2022-12-24T04:33:11.504Z,100048.53
2022-12-24T04:35:41.529Z,100048.16
2022-12-24T04:38:08.697Z,100053.28
2022-12-24T04:40:35.469Z,100060.59
2022-12-24T04:43:01.783Z,100063.34
2022-12-24T04:45:28.243Z,100070.28
2022-12-24T04:47:54.567Z,100070.53
2022-12-24T04:50:20.934Z,100075.78
2022-12-24T04:52:47.257Z,100075.78
2022-12-24T04:55:13.603Z,100079.97
2022-12-24T04:57:39.992Z,100080.44
2022-12-24T05:00:07.270Z,100082.31
2022-12-24T05:02:33.952Z,100084.44
2022-12-24T05:05:00.497Z,100080.72
2022-12-24T05:07:26.861Z,100079.69
2022-12-24T05:09:53.207Z,100081.75
2022-12-24T05:12:19.566Z,100082.19
2022-12-24T05:14:46.013Z,100083.28
2022-12-24T05:17:12.436Z,100081.31
2022-12-24T05:19:38.824Z,100080.19
2022-12-24T05:22:23.989Z,100081.22
2022-12-24T05:25:09.223Z,100078.75
2022-12-24T05:27:35.799Z,100078.06
2022-12-24T05:30:02.147Z,100086.19
2022-12-24T05:32:28.815Z,100087.59
2022-12-24T05:34:55.183Z,100087.16
2022-12-24T05:37:21.509Z,100087.53
2022-12-24T05:39:47.929Z,100088.19
2022-12-24T05:42:14.289Z,100093.69
2022-12-24T05:44:40.689Z,100097.97
2022-12-24T05:47:07.099Z,100103.97
2022-12-24T05:49:33.500Z,100108.31
2022-12-24T05:51:59.854Z,100115.22
2022-12-24T05:54:26.248Z,100107.47
2022-12-24T05:56:52.617Z,100119.09
2022-12-24T05:59:19.037Z,100121.84
2022-12-24T06:01:48.101Z,100120.88
2022-12-24T06:04:14.710Z,100131.44
2022-12-24T06:06:41.129Z,100134.81
2022-12-24T06:09:07.524Z,100127.75
2022-12-24T06:11:33.921Z,100128.09
2022-12-24T06:14:00.320Z,100126.81
2022-12-24T06:16:26.939Z,100133.28
2022-12-24T06:18:53.483Z,100132.97
2022-12-24T06:21:20.215Z,100128.09
2022-12-24T06:23:46.937Z,100133.16
2022-12-24T06:26:14.791Z,100146.16
2022-12-24T06:28:41.139Z,100142.97
2022-12-24T06:31:11.197Z,100149.66
2022-12-24T06:33:37.629Z,100151.88
2022-12-24T06:36:11.712Z,100168.03
2022-12-24T06:38:41.464Z,100167.53
2022-12-24T06:41:08.219Z,100159.81
2022-12-24T06:43:34.934Z,100166.59
2022-12-24T06:46:02.117Z,100167.44
2022-12-24T06:48:28.659Z,100164.63
2022-12-24T06:50:55.017Z,100172.75
2022-12-24T06:53:21.503Z,100169.91
2022-12-24T06:55:47.887Z,100174.28
2022-12-24T06:58:14.457Z,100179.91
2022-12-24T07:00:40.862Z,100191.06
2022-12-24T07:03:07.281Z,100186.19
2022-12-24T07:05:33.672Z,100194.03
2022-12-24T07:08:00.001Z,100197.72
2022-12-24T07:10:26.388Z,100209.13
2022-12-24T07:12:52.809Z,100211.84
2022-12-24T07:15:19.228Z,100217.31
2022-12-24T07:17:45.628Z,100219.13
2022-12-24T07:20:13.729Z,100226.41
2022-12-24T07:22:40.171Z,100232.66
2022-12-24T07:25:08.915Z,100227.63
2022-12-24T07:27:35.493Z,100237.22
2022-12-24T07:30:01.959Z,100240.84
2022-12-24T07:32:28.338Z,100236.41
2022-12-24T07:34:57.125Z,100226.75
2022-12-24T07:37:23.522Z,100228.13
2022-12-24T07:39:49.938Z,100234.38
2022-12-24T07:42:16.517Z,100236.50
2022-12-24T07:44:42.921Z,100244.09
2022-12-24T07:47:09.441Z,100240.19
2022-12-24T07:49:36.469Z,100254.91
2022-12-24T07:52:03.246Z,100253.13
2022-12-24T07:54:29.819Z,100258.91
2022-12-24T07:56:56.243Z,100260.09
2022-12-24T07:59:22.577Z,100258.22
2022-12-24T08:01:49.107Z,100263.44
2022-12-24T08:04:15.647Z,100270.38
2022-12-24T08:06:42.045Z,100257.81
2022-12-24T08:09:08.405Z,100267.91
2022-12-24T08:11:34.776Z,100265.19
2022-12-24T08:14:01.161Z,100268.25
2022-12-24T08:16:27.664Z,100266.38
2022-12-24T08:18:54.146Z,100281.84
2022-12-24T08:21:20.536Z,100284.94
2022-12-24T08:23:47.505Z,100274.84
2022-12-24T08:26:14.014Z,100267.47
2022-12-24T08:28:40.520Z,100272.72
2022-12-24T08:31:06.960Z,100283.31
2022-12-24T08:33:33.344Z,100282.03
2022-12-24T08:36:01.049Z,100288.09
2022-12-24T08:38:27.422Z,100292.03
2022-12-24T08:40:54.749Z,100287.00
2022-12-24T08:43:21.399Z,100290.00
2022-12-24T08:45:49.591Z,100304.88
2022-12-24T08:48:16.007Z,100305.81
2022-12-24T08:50:42.849Z,100306.09
2022-12-24T08:53:09.754Z,100305.72
2022-12-24T08:55:36.419Z,100310.47
2022-12-24T08:58:03.387Z,100303.13
2022-12-24T09:00:29.924Z,100303.88
2022-12-24T09:02:56.603Z,100308.06
2022-12-24T09:05:23.046Z,100314.03
2022-12-24T09:07:49.436Z,100313.88
2022-12-24T09:10:17.198Z,100314.66
2022-12-24T09:12:43.557Z,100325.19
2022-12-24T09:15:33.143Z,100340.78
2022-12-24T09:18:00.951Z,100337.50
2022-12-24T09:20:42.703Z,100338.25
2022-12-24T09:23:29.422Z,100344.03
2022-12-24T09:26:05.648Z,100351.81
2022-12-24T09:28:42.661Z,100344.97
2022-12-24T09:31:19.098Z,100349.88
2022-12-24T09:33:46.799Z,100352.34
2022-12-24T09:36:17.404Z,100362.53
2022-12-24T09:38:44.420Z,100378.97
2022-12-24T09:41:30.244Z,100376.31
2022-12-24T09:44:00.086Z,100377.34
2022-12-24T09:46:50.818Z,100379.38
2022-12-24T09:49:20.510Z,100387.28
2022-12-24T09:51:55.776Z,100385.41
2022-12-24T09:54:25.491Z,100391.66
2022-12-24T09:56:52.256Z,100384.97
2022-12-24T09:59:23.184Z,100397.72
2022-12-24T10:01:51.716Z,100405.19
2022-12-24T10:04:20.147Z,100404.22
2022-12-24T10:07:04.272Z,100410.16
2022-12-24T10:09:40.088Z,100405.44
2022-12-24T10:12:15.478Z,100411.59
2022-12-24T10:14:50.958Z,100416.31
2022-12-24T10:17:23.575Z,100408.53
2022-12-24T10:20:08.922Z,100417.78
2022-12-24T10:22:50.389Z,100418.72
2022-12-24T10:25:22.854Z,100432.34
2022-12-24T10:27:49.283Z,100436.81
2022-12-24T10:30:18.863Z,100438.34
2022-12-24T10:32:47.028Z,100440.75
2022-12-24T10:35:16.483Z,100456.28
2022-12-24T10:37:44.233Z,100446.34
2022-12-24T10:40:16.631Z,100455.16
2022-12-24T10:42:50.261Z,100454.16
2022-12-24T10:45:23.517Z,100461.31
2022-12-24T10:47:57.813Z,100468.69
2022-12-24T10:50:41.088Z,100474.34
2022-12-24T10:53:15.493Z,100471.78
2022-12-24T10:55:42.251Z,100475.72
2022-12-24T10:58:15.605Z,100470.66
2022-12-24T11:00:57.087Z,100465.00
2022-12-24T11:03:28.746Z,100478.47
2022-12-24T11:06:06.793Z,100486.28
2022-12-24T11:08:36.094Z,100483.47
2022-12-24T11:11:05.553Z,100476.88
2022-12-24T11:13:38.274Z,100479.25
2022-12-24T11:16:24.938Z,100483.31
2022-12-24T11:18:53.180Z,100480.44
2022-12-24T11:21:25.102Z,100482.38
2022-12-24T11:23:53.473Z,100488.44
2022-12-24T11:26:24.279Z,100479.94
2022-12-24T11:29:16.616Z,100495.81
2022-12-24T11:31:43.811Z,100491.50
2022-12-24T11:34:37.189Z,100488.50
2022-12-24T11:37:15.163Z,100498.34
2022-12-24T11:39:45.112Z,100499.03
2022-12-24T11:42:33.238Z,100504.00
2022-12-24T11:45:01.087Z,100504.25
2022-12-24T11:47:37.979Z,100495.19
2022-12-24T11:50:20.994Z,100489.97
2022-12-24T11:52:49.900Z,100498.38
2022-12-24T11:55:30.437Z,100499.06
2022-12-24T11:58:16.330Z,100501.50
2022-12-24T12:00:44.546Z,100512.19
2022-12-24T12:03:27.872Z,100509.34
2022-12-24T12:05:59.412Z,100512.28
2022-12-24T12:08:28.601Z,100513.75
2022-12-24T12:10:56.442Z,100512.63
2022-12-24T12:13:30.183Z,100517.25
2022-12-24T12:16:26.197Z,100525.31
2022-12-24T12:19:00.096Z,100518.03
2022-12-24T12:21:35.730Z,100525.00
2022-12-24T12:24:08.234Z,100521.31
2022-12-24T12:26:34.837Z,100528.72
2022-12-24T12:29:04.493Z,100530.63
2022-12-24T12:31:31.076Z,100534.03
2022-12-24T12:34:03.502Z,100541.00
2022-12-24T12:36:32.911Z,100543.50
2022-12-24T12:38:59.554Z,100541.59
2022-12-24T12:41:45.175Z,100536.63
2022-12-24T12:44:38.675Z,100547.09
2022-12-24T12:47:23.617Z,100546.75
2022-12-24T12:50:03.699Z,100544.38
2022-12-24T12:52:36.210Z,100541.75
2022-12-24T12:55:24.138Z,100537.72
2022-12-24T12:57:56.581Z,100537.94
2022-12-24T13:00:30.676Z,100544.28
2022-12-24T13:03:25.788Z,100541.69
2022-12-24T13:05:52.270Z,100548.22
2022-12-24T13:08:30.982Z,100551.25
2022-12-24T13:11:13.134Z,100546.06
2022-12-24T13:13:42.644Z,100556.84
2022-12-24T13:16:27.859Z,100553.81
2022-12-24T13:19:18.094Z,100553.75
2022-12-24T13:21:49.083Z,100565.59
2022-12-24T13:24:19.831Z,100553.44
2022-12-24T13:27:06.665Z,100551.00
2022-12-24T13:29:36.105Z,100560.22
2022-12-24T13:32:34.952Z,100562.72
2022-12-24T13:35:03.148Z,100574.88
2022-12-24T13:37:34.173Z,100578.69
2022-12-24T13:40:00.506Z,100573.47
2022-12-24T13:42:45.659Z,100583.16
2022-12-24T13:45:32.902Z,100583.75
2022-12-24T13:48:13.446Z,100588.03
2022-12-24T13:50:53.374Z,100597.16
2022-12-24T13:53:23.575Z,100601.28
2022-12-24T13:55:55.045Z,100583.53
2022-12-24T13:58:29.271Z,100612.25
2022-12-24T14:00:57.981Z,100617.72
2022-12-24T14:03:35.661Z,100622.91
2022-12-24T14:06:10.660Z,100624.72
2022-12-24T14:08:40.330Z,100630.13
2022-12-24T14:11:10.276Z,100629.09
2022-12-24T14:13:39.803Z,100638.19
2022-12-24T14:16:06.419Z,100630.00
2022-12-24T14:18:35.363Z,100634.53
2022-12-24T14:21:02.286Z,100642.69
2022-12-24T14:23:44.433Z,100640.63
2022-12-24T14:26:18.558Z,100639.59
2022-12-24T14:28:56.702Z,100643.63
2022-12-24T14:31:23.372Z,100645.09
2022-12-24T14:33:49.875Z,100640.91
2022-12-24T14:36:20.139Z,100646.47
2022-12-24T14:38:46.849Z,100651.88
2022-12-24T14:41:34.194Z,100661.00
2022-12-24T14:44:09.908Z,100659.38
2022-12-24T14:46:48.599Z,100660.25
2022-12-24T14:49:30.941Z,100669.31
2022-12-24T14:52:05.377Z,100679.59
2022-12-24T14:54:49.731Z,100674.69
2022-12-24T14:57:53.062Z,100676.34
2022-12-24T15:03:03.960Z,100677.56
2022-12-24T15:05:33.145Z,100679.03
2022-12-24T15:08:01.496Z,100686.09
2022-12-24T15:11:02.347Z,100688.66
2022-12-24T15:13:36.465Z,100700.31
2022-12-24T15:16:05.507Z,100699.81
2022-12-24T15:18:33.544Z,100706.66
2022-12-24T15:21:04.628Z,100707.34
2022-12-24T15:23:47.307Z,100712.63
2022-12-24T15:26:30.271Z,100715.84
2022-12-24T15:29:02.667Z,100716.09
2022-12-24T15:31:29.974Z,100722.66
2022-12-24T15:33:57.109Z,100725.53
2022-12-24T15:36:27.315Z,100726.41
2022-12-24T15:38:55.255Z,100726.31
2022-12-24T15:41:23.967Z,100730.66
2022-12-24T15:43:51.367Z,100726.50
2022-12-24T15:46:22.439Z,100739.19
2022-12-24T15:48:49.181Z,100735.78
2022-12-24T15:51:21.597Z,100740.59
2022-12-24T15:53:49.304Z,100745.59
2022-12-24T15:56:27.943Z,100736.38
2022-12-24T15:59:12.330Z,100753.47
2022-12-24T16:01:44.751Z,100755.09
2022-12-24T16:04:16.090Z,100771.03
2022-12-24T16:06:53.718Z,100768.47
2022-12-24T16:09:43.684Z,100772.91
2022-12-24T16:12:15.969Z,100775.63
2022-12-24T16:14:48.095Z,100771.38
2022-12-24T16:17:22.685Z,100777.75
2022-12-24T16:19:54.653Z,100787.94
2022-12-24T16:22:31.447Z,100794.91
2022-12-24T16:25:18.053Z,100794.63
2022-12-24T16:27:47.668Z,100789.47
2022-12-24T16:30:14.289Z,100789.09
2022-12-24T16:32:42.193Z,100788.50
2022-12-24T16:35:17.914Z,100787.28
2022-12-24T16:37:44.302Z,100785.38
2022-12-24T16:40:18.286Z,100793.25
2022-12-24T16:43:04.615Z,100796.44
2022-12-24T16:45:31.922Z,100801.59
2022-12-24T16:47:58.916Z,100801.94
2022-12-24T16:50:27.445Z,100805.19
2022-12-24T16:52:56.421Z,100813.16
2022-12-24T16:55:22.958Z,100806.31
2022-12-24T16:57:51.703Z,100813.69
2022-12-24T17:00:21.977Z,100802.13
2022-12-24T17:02:49.609Z,100815.84
2022-12-24T17:05:16.297Z,100811.75
2022-12-24T17:07:44.010Z,100818.41
2022-12-24T17:10:13.398Z,100810.25
2022-12-24T17:12:39.986Z,100813.59
2022-12-24T17:15:09.838Z,100816.53
2022-12-24T17:17:36.289Z,100825.44
2022-12-24T17:20:23.812Z,100827.94
2022-12-24T17:22:50.776Z,100838.09
2022-12-24T17:25:18.285Z,100838.59
2022-12-24T17:27:46.343Z,100836.88
2022-12-24T17:30:13.153Z,100838.78
2022-12-24T17:32:43.914Z,100850.66
2022-12-24T17:35:11.022Z,100850.91
2022-12-24T17:37:40.561Z,100848.38
2022-12-24T17:40:07.702Z,100855.84
2022-12-24T17:42:36.875Z,100859.34
2022-12-24T17:45:13.152Z,100858.38
2022-12-24T17:47:39.615Z,100865.81
2022-12-24T17:50:10.894Z,100871.22
2022-12-24T17:52:43.923Z,100871.69
2022-12-24T17:55:13.936Z,100862.59
2022-12-24T17:57:44.081Z,100870.69
2022-12-24T18:00:12.771Z,100881.31
2022-12-24T18:02:39.360Z,100870.22
2022-12-24T18:05:06.128Z,100870.63
2022-12-24T18:07:32.646Z,100873.44
2022-12-24T18:10:00.078Z,100874.56
2022-12-24T18:12:26.711Z,100886.53
2022-12-24T18:14:53.143Z,100883.56
2022-12-24T18:17:19.574Z,100890.22
2022-12-24T18:19:45.989Z,100891.19
2022-12-24T18:22:12.360Z,100896.66
2022-12-24T18:24:38.898Z,100899.38
2022-12-24T18:27:05.330Z,100903.41
2022-12-24T18:29:31.879Z,100894.88
2022-12-24T18:32:00.949Z,100896.38
2022-12-24T18:34:27.517Z,100908.00
2022-12-24T18:36:55.684Z,100907.13
2022-12-24T18:39:22.477Z,100904.47
2022-12-24T18:41:49.692Z,100907.00
2022-12-24T18:44:22.544Z,100908.44
2022-12-24T18:46:51.309Z,100909.38
2022-12-24T18:49:17.721Z,100907.31
2022-12-24T18:51:44.084Z,100907.97
2022-12-24T18:54:10.524Z,100924.22
2022-12-24T18:56:37.032Z,100917.06
2022-12-24T18:59:03.749Z,100919.06
2022-12-24T19:01:35.656Z,100922.38
2022-12-24T19:04:02.235Z,100925.72
2022-12-24T19:06:29.780Z,100928.75
2022-12-24T19:08:58.234Z,100924.69
2022-12-24T19:11:26.320Z,100924.53
2022-12-24T19:13:55.744Z,100937.97
2022-12-24T19:16:22.330Z,100935.72
2022-12-24T19:18:48.894Z,100935.72
2022-12-24T19:21:16.245Z,100939.03
2022-12-24T19:23:43.024Z,100930.00
2022-12-24T19:26:10.495Z,100930.50
2022-12-24T19:28:37.392Z,100933.38
2022-12-24T19:31:08.354Z,100938.78
2022-12-24T19:33:43.320Z,100934.47
2022-12-24T19:36:11.649Z,100931.06
2022-12-24T19:38:38.152Z,100939.63
2022-12-24T19:41:06.853Z,100948.38
2022-12-24T19:43:33.798Z,100955.13
2022-12-24T19:46:03.183Z,100960.88
2022-12-24T19:48:30.102Z,100961.88
2022-12-24T19:51:01.792Z,100966.41
2022-12-24T19:53:28.713Z,100958.59
2022-12-24T19:55:59.038Z,100959.88
2022-12-24T19:58:35.617Z,100966.19
2022-12-24T20:01:15.476Z,100967.09
2022-12-24T20:03:42.511Z,100964.09
2022-12-24T20:06:14.067Z,100961.78
2022-12-24T20:08:41.077Z,100967.41
2022-12-24T20:11:11.885Z,100961.66
2022-12-24T20:13:40.439Z,100956.47
2022-12-24T20:16:08.267Z,100962.22
2022-12-24T20:18:35.614Z,100958.28
2022-12-24T20:21:05.477Z,100959.97
2022-12-24T20:23:32.316Z,100962.38
2022-12-24T20:26:03.210Z,100964.88
2022-12-24T20:28:33.045Z,100970.41
2022-12-24T20:31:09.221Z,100977.59
2022-12-24T20:33:35.866Z,100979.59
2022-12-24T20:36:14.253Z,100985.41
2022-12-24T20:38:42.928Z,100977.09
2022-12-24T20:41:10.640Z,100980.19
2022-12-24T20:43:45.063Z,100974.38
2022-12-24T20:46:14.225Z,100981.72
2022-12-24T20:48:41.793Z,100979.97
2022-12-24T20:51:21.015Z,100994.75
2022-12-24T20:53:50.244Z,100987.06
2022-12-24T20:56:18.161Z,100999.78
2022-12-24T20:58:48.048Z,101006.75
2022-12-24T21:01:17.146Z,101002.66
2022-12-24T21:03:45.932Z,101007.63
2022-12-24T21:06:20.001Z,101003.66
2022-12-24T21:08:54.768Z,101002.44
2022-12-24T21:11:41.820Z,101006.13
2022-12-24T21:14:08.461Z,101006.59
2022-12-24T21:16:35.982Z,101009.06
2022-12-24T21:19:03.399Z,101015.03
2022-12-24T21:21:32.605Z,101017.47
2022-12-24T21:23:59.371Z,101019.69
2022-12-24T21:26:28.097Z,101017.03
2022-12-24T21:28:57.031Z,101027.53
2022-12-24T21:31:26.063Z,101026.66
2022-12-24T21:33:55.745Z,101026.66
2022-12-24T21:36:25.434Z,101026.88
2022-12-24T21:38:55.009Z,101031.25
2022-12-24T21:41:26.125Z,101033.25
2022-12-24T21:43:57.058Z,101038.81
2022-12-24T21:46:25.510Z,101048.53
2022-12-24T21:49:14.382Z,101042.22
2022-12-24T21:51:43.462Z,101038.19
2022-12-24T21:54:30.781Z,101049.34
2022-12-24T21:57:17.594Z,101056.78
2022-12-24T21:59:44.300Z,101055.38
2022-12-24T22:02:17.483Z,101063.06
2022-12-24T22:04:44.246Z,101070.00
2022-12-24T22:07:45.827Z,101067.97
2022-12-24T22:10:31.911Z,101068.88
2022-12-24T22:13:07.118Z,101074.47
2022-12-24T22:15:38.214Z,101082.53
2022-12-24T22:18:04.840Z,101086.06
2022-12-24T22:20:32.496Z,101082.75
2022-12-24T22:22:58.906Z,101079.69
2022-12-24T22:25:29.639Z,101083.28
2022-12-24T22:28:01.622Z,101080.09
2022-12-24T22:30:29.895Z,101077.94
2022-12-24T22:33:12.794Z,101082.47
2022-12-24T22:39:18.793Z,101095.78
2022-12-24T22:41:45.520Z,101101.13
2022-12-24T22:44:12.229Z,101105.59
2022-12-24T22:46:38.978Z,101101.88
2022-12-24T22:49:08.321Z,101106.59
2022-12-24T22:51:37.858Z,101111.84
2022-12-24T22:54:04.362Z,101117.03
2022-12-24T22:56:40.440Z,101116.03
2022-12-24T22:59:15.478Z,101123.22
2022-12-24T23:01:51.259Z,101129.31
2022-12-24T23:04:18.128Z,101126.25
2022-12-24T23:06:44.745Z,101130.78
2022-12-24T23:09:12.480Z,101141.28
2022-12-24T23:11:39.649Z,101132.88
2022-12-24T23:14:24.763Z,101138.75
2022-12-24T23:17:00.503Z,101137.75
2022-12-24T23:19:26.907Z,101137.28
2022-12-24T23:21:53.394Z,101133.72
2022-12-24T23:24:19.973Z,101127.13
2022-12-24T23:26:46.695Z,101135.41
2022-12-24T23:29:13.119Z,101137.97
2022-12-24T23:31:39.496Z,101140.91
2022-12-24T23:34:05.985Z,101138.41
2022-12-24T23:36:56.983Z,101137.97
2022-12-24T23:39:34.146Z,101137.56
2022-12-24T23:42:00.524Z,101139.19
2022-12-24T23:44:32.177Z,101131.25
2022-12-24T23:47:03.453Z,101129.28
2022-12-24T23:49:30.165Z,101128.50
2022-12-24T23:51:56.562Z,101130.69
2022-12-24T23:54:22.906Z,101130.25
2022-12-24T23:56:55.397Z,101127.44
2022-12-24T23:59:21.822Z,101128.59
